sensor_id;sensor_type;location;lat;lon;timestamp;P1;durP1;ratioP1;P2;durP2;ratioP2
13325;SDS011;6732;51.044;3.746;2022-12-07T00:01:19;6.23;;;5.50;;
13325;SDS011;6732;51.044;3.746;2022-12-07T00:03:46;7.43;;;5.07;;
13325;SDS011;6732;51.044;3.746;2022-12-07T00:06:14;5.63;;;5.00;;
13325;SDS011;6732;51.044;3.746;2022-12-07T00:08:42;8.07;;;5.70;;
13325;SDS011;6732;51.044;3.746;2022-12-07T00:11:09;7.10;;;4.73;;
13325;SDS011;6732;51.044;3.746;2022-12-07T00:13:40;8.17;;;5.27;;
13325;SDS011;6732;51.044;3.746;2022-12-07T00:16:07;6.53;;;5.00;;
13325;SDS011;6732;51.044;3.746;2022-12-07T00:18:35;6.83;;;4.57;;
13325;SDS011;6732;51.044;3.746;2022-12-07T00:21:02;5.43;;;3.83;;
13325;SDS011;6732;51.044;3.746;2022-12-07T00:23:28;6.60;;;4.30;;
13325;SDS011;6732;51.044;3.746;2022-12-07T00:25:55;5.20;;;4.03;;
13325;SDS011;6732;51.044;3.746;2022-12-07T00:28:21;5.37;;;4.30;;
13325;SDS011;6732;51.044;3.746;2022-12-07T00:30:47;6.47;;;4.50;;
13325;SDS011;6732;51.044;3.746;2022-12-07T00:33:13;5.63;;;4.33;;
13325;SDS011;6732;51.044;3.746;2022-12-07T00:35:39;5.47;;;4.47;;
13325;SDS011;6732;51.044;3.746;2022-12-07T00:38:04;5.53;;;3.70;;
13325;SDS011;6732;51.044;3.746;2022-12-07T00:40:30;5.27;;;3.60;;
13325;SDS011;6732;51.044;3.746;2022-12-07T00:42:56;4.80;;;3.40;;
13325;SDS011;6732;51.044;3.746;2022-12-07T00:45:22;3.23;;;2.93;;
13325;SDS011;6732;51.044;3.746;2022-12-07T00:47:48;5.67;;;3.33;;
13325;SDS011;6732;51.044;3.746;2022-12-07T00:50:14;6.13;;;3.03;;
13325;SDS011;6732;51.044;3.746;2022-12-07T00:52:40;3.47;;;2.80;;
13325;SDS011;6732;51.044;3.746;2022-12-07T00:55:06;3.50;;;2.90;;
13325;SDS011;6732;51.044;3.746;2022-12-07T00:57:32;3.17;;;2.60;;
13325;SDS011;6732;51.044;3.746;2022-12-07T00:59:58;5.00;;;3.17;;
13325;SDS011;6732;51.044;3.746;2022-12-07T01:02:25;3.77;;;2.67;;
13325;SDS011;6732;51.044;3.746;2022-12-07T01:04:51;4.27;;;2.63;;
13325;SDS011;6732;51.044;3.746;2022-12-07T01:07:17;4.37;;;3.23;;
13325;SDS011;6732;51.044;3.746;2022-12-07T01:09:43;3.17;;;2.73;;
13325;SDS011;6732;51.044;3.746;2022-12-07T01:12:09;3.50;;;2.60;;
13325;SDS011;6732;51.044;3.746;2022-12-07T01:14:35;4.73;;;3.10;;
13325;SDS011;6732;51.044;3.746;2022-12-07T01:17:01;6.03;;;3.77;;
13325;SDS011;6732;51.044;3.746;2022-12-07T01:19:27;4.17;;;3.10;;
13325;SDS011;6732;51.044;3.746;2022-12-07T01:21:53;3.67;;;3.17;;
13325;SDS011;6732;51.044;3.746;2022-12-07T01:24:18;4.43;;;3.10;;
13325;SDS011;6732;51.044;3.746;2022-12-07T01:26:44;4.83;;;4.20;;
13325;SDS011;6732;51.044;3.746;2022-12-07T01:29:10;6.27;;;4.30;;
13325;SDS011;6732;51.044;3.746;2022-12-07T01:31:36;4.40;;;3.40;;
13325;SDS011;6732;51.044;3.746;2022-12-07T01:34:02;4.73;;;3.53;;
13325;SDS011;6732;51.044;3.746;2022-12-07T01:36:32;4.47;;;3.90;;
13325;SDS011;6732;51.044;3.746;2022-12-07T01:39:00;4.80;;;3.70;;
13325;SDS011;6732;51.044;3.746;2022-12-07T01:41:29;4.17;;;3.60;;
13325;SDS011;6732;51.044;3.746;2022-12-07T01:44:14;5.10;;;3.80;;
13325;SDS011;6732;51.044;3.746;2022-12-07T01:49:26;4.63;;;4.23;;
13325;SDS011;6732;51.044;3.746;2022-12-07T01:52:13;6.57;;;5.00;;
13325;SDS011;6732;51.044;3.746;2022-12-07T01:54:40;7.37;;;5.37;;
13325;SDS011;6732;51.044;3.746;2022-12-07T01:57:08;6.23;;;5.33;;
13325;SDS011;6732;51.044;3.746;2022-12-07T01:59:34;7.57;;;5.57;;
13325;SDS011;6732;51.044;3.746;2022-12-07T02:02:02;6.33;;;5.10;;
13325;SDS011;6732;51.044;3.746;2022-12-07T02:04:33;5.27;;;4.77;;
13325;SDS011;6732;51.044;3.746;2022-12-07T02:07:00;6.43;;;5.10;;
13325;SDS011;6732;51.044;3.746;2022-12-07T02:09:28;7.53;;;5.23;;
13325;SDS011;6732;51.044;3.746;2022-12-07T02:11:54;7.60;;;5.07;;
13325;SDS011;6732;51.044;3.746;2022-12-07T02:14:21;5.43;;;4.70;;
13325;SDS011;6732;51.044;3.746;2022-12-07T02:17:01;9.43;;;5.00;;
13325;SDS011;6732;51.044;3.746;2022-12-07T02:22:22;6.47;;;4.60;;
13325;SDS011;6732;51.044;3.746;2022-12-07T02:28:05;5.43;;;4.53;;
13325;SDS011;6732;51.044;3.746;2022-12-07T02:30:33;7.87;;;5.40;;
13325;SDS011;6732;51.044;3.746;2022-12-07T02:33:05;6.17;;;4.73;;
13325;SDS011;6732;51.044;3.746;2022-12-07T02:35:43;6.27;;;5.00;;
13325;SDS011;6732;51.044;3.746;2022-12-07T02:40:54;5.50;;;4.50;;
13325;SDS011;6732;51.044;3.746;2022-12-07T02:43:30;5.40;;;4.73;;
13325;SDS011;6732;51.044;3.746;2022-12-07T02:46:02;7.30;;;4.97;;
13325;SDS011;6732;51.044;3.746;2022-12-07T02:48:34;7.50;;;5.00;;
13325;SDS011;6732;51.044;3.746;2022-12-07T02:51:02;7.90;;;5.30;;
13325;SDS011;6732;51.044;3.746;2022-12-07T02:53:38;6.67;;;5.07;;
13325;SDS011;6732;51.044;3.746;2022-12-07T02:56:09;6.70;;;4.83;;
13325;SDS011;6732;51.044;3.746;2022-12-07T03:06:52;5.33;;;4.53;;
13325;SDS011;6732;51.044;3.746;2022-12-07T03:09:28;6.37;;;4.57;;
13325;SDS011;6732;51.044;3.746;2022-12-07T03:12:05;7.57;;;4.97;;
13325;SDS011;6732;51.044;3.746;2022-12-07T03:15:13;7.97;;;4.60;;
13325;SDS011;6732;51.044;3.746;2022-12-07T03:17:37;6.07;;;4.43;;
13325;SDS011;6732;51.044;3.746;2022-12-07T03:20:06;6.97;;;4.43;;
13325;SDS011;6732;51.044;3.746;2022-12-07T03:22:35;4.70;;;3.63;;
13325;SDS011;6732;51.044;3.746;2022-12-07T03:25:07;6.37;;;4.13;;
13325;SDS011;6732;51.044;3.746;2022-12-07T03:30:20;6.33;;;4.00;;
13325;SDS011;6732;51.044;3.746;2022-12-07T03:32:59;4.07;;;3.67;;
13325;SDS011;6732;51.044;3.746;2022-12-07T03:35:34;4.67;;;3.50;;
13325;SDS011;6732;51.044;3.746;2022-12-07T03:38:18;4.20;;;3.77;;
13325;SDS011;6732;51.044;3.746;2022-12-07T03:40:56;4.73;;;3.70;;
13325;SDS011;6732;51.044;3.746;2022-12-07T03:43:31;3.53;;;3.03;;
13325;SDS011;6732;51.044;3.746;2022-12-07T03:46:32;4.00;;;3.47;;
13325;SDS011;6732;51.044;3.746;2022-12-07T03:52:23;5.27;;;3.80;;
13325;SDS011;6732;51.044;3.746;2022-12-07T03:55:00;4.87;;;3.23;;
13325;SDS011;6732;51.044;3.746;2022-12-07T03:57:33;5.03;;;3.00;;
13325;SDS011;6732;51.044;3.746;2022-12-07T04:00:00;4.30;;;3.10;;
13325;SDS011;6732;51.044;3.746;2022-12-07T04:02:30;4.27;;;3.07;;
13325;SDS011;6732;51.044;3.746;2022-12-07T04:04:57;5.13;;;3.07;;
13325;SDS011;6732;51.044;3.746;2022-12-07T04:07:23;3.93;;;3.10;;
13325;SDS011;6732;51.044;3.746;2022-12-07T04:09:49;4.60;;;3.40;;
13325;SDS011;6732;51.044;3.746;2022-12-07T04:12:15;6.37;;;3.20;;
13325;SDS011;6732;51.044;3.746;2022-12-07T04:14:41;5.53;;;3.60;;
13325;SDS011;6732;51.044;3.746;2022-12-07T04:17:06;3.87;;;2.50;;
13325;SDS011;6732;51.044;3.746;2022-12-07T04:19:34;5.97;;;3.10;;
13325;SDS011;6732;51.044;3.746;2022-12-07T04:22:00;4.93;;;3.20;;
13325;SDS011;6732;51.044;3.746;2022-12-07T04:24:28;4.40;;;2.57;;
13325;SDS011;6732;51.044;3.746;2022-12-07T04:26:54;3.67;;;2.63;;
13325;SDS011;6732;51.044;3.746;2022-12-07T04:29:20;3.73;;;2.50;;
13325;SDS011;6732;51.044;3.746;2022-12-07T04:31:46;5.90;;;3.20;;
13325;SDS011;6732;51.044;3.746;2022-12-07T04:34:13;5.90;;;2.77;;
13325;SDS011;6732;51.044;3.746;2022-12-07T04:36:40;5.63;;;2.60;;
13325;SDS011;6732;51.044;3.746;2022-12-07T04:39:07;5.80;;;2.67;;
13325;SDS011;6732;51.044;3.746;2022-12-07T04:41:38;3.23;;;2.43;;
13325;SDS011;6732;51.044;3.746;2022-12-07T04:44:04;6.27;;;2.70;;
13325;SDS011;6732;51.044;3.746;2022-12-07T04:46:32;3.60;;;2.50;;
13325;SDS011;6732;51.044;3.746;2022-12-07T04:48:58;6.03;;;2.90;;
13325;SDS011;6732;51.044;3.746;2022-12-07T04:51:26;2.47;;;2.27;;
13325;SDS011;6732;51.044;3.746;2022-12-07T04:53:54;5.10;;;2.40;;
13325;SDS011;6732;51.044;3.746;2022-12-07T04:56:21;3.03;;;2.40;;
13325;SDS011;6732;51.044;3.746;2022-12-07T04:58:48;6.13;;;3.00;;
13325;SDS011;6732;51.044;3.746;2022-12-07T05:01:15;3.83;;;2.83;;
13325;SDS011;6732;51.044;3.746;2022-12-07T05:03:42;7.47;;;2.73;;
13325;SDS011;6732;51.044;3.746;2022-12-07T05:06:08;4.87;;;2.70;;
13325;SDS011;6732;51.044;3.746;2022-12-07T05:08:35;3.83;;;2.57;;
13325;SDS011;6732;51.044;3.746;2022-12-07T05:11:01;4.33;;;2.70;;
13325;SDS011;6732;51.044;3.746;2022-12-07T05:13:28;3.97;;;2.40;;
13325;SDS011;6732;51.044;3.746;2022-12-07T05:15:54;3.47;;;2.17;;
13325;SDS011;6732;51.044;3.746;2022-12-07T05:18:20;5.20;;;2.60;;
13325;SDS011;6732;51.044;3.746;2022-12-07T05:20:46;4.57;;;2.20;;
13325;SDS011;6732;51.044;3.746;2022-12-07T05:23:12;3.20;;;2.17;;
13325;SDS011;6732;51.044;3.746;2022-12-07T05:25:38;5.30;;;2.80;;
13325;SDS011;6732;51.044;3.746;2022-12-07T05:28:04;5.43;;;2.60;;
13325;SDS011;6732;51.044;3.746;2022-12-07T05:30:30;4.37;;;2.40;;
13325;SDS011;6732;51.044;3.746;2022-12-07T05:32:56;4.73;;;2.60;;
13325;SDS011;6732;51.044;3.746;2022-12-07T05:35:24;3.90;;;2.87;;
13325;SDS011;6732;51.044;3.746;2022-12-07T05:37:50;4.13;;;2.40;;
13325;SDS011;6732;51.044;3.746;2022-12-07T05:40:16;4.00;;;2.40;;
13325;SDS011;6732;51.044;3.746;2022-12-07T05:42:44;3.60;;;2.53;;
13325;SDS011;6732;51.044;3.746;2022-12-07T05:45:10;3.77;;;2.37;;
13325;SDS011;6732;51.044;3.746;2022-12-07T05:47:36;3.10;;;2.40;;
13325;SDS011;6732;51.044;3.746;2022-12-07T05:50:03;5.47;;;2.57;;
13325;SDS011;6732;51.044;3.746;2022-12-07T05:52:29;4.97;;;2.20;;
13325;SDS011;6732;51.044;3.746;2022-12-07T05:54:56;2.93;;;1.97;;
13325;SDS011;6732;51.044;3.746;2022-12-07T05:57:22;3.80;;;2.67;;
13325;SDS011;6732;51.044;3.746;2022-12-07T05:59:48;4.83;;;2.60;;
13325;SDS011;6732;51.044;3.746;2022-12-07T06:02:14;3.70;;;2.80;;
13325;SDS011;6732;51.044;3.746;2022-12-07T06:04:45;3.37;;;2.47;;
13325;SDS011;6732;51.044;3.746;2022-12-07T06:07:12;4.07;;;2.90;;
13325;SDS011;6732;51.044;3.746;2022-12-07T06:09:40;4.27;;;3.10;;
13325;SDS011;6732;51.044;3.746;2022-12-07T06:12:06;3.60;;;2.70;;
13325;SDS011;6732;51.044;3.746;2022-12-07T06:14:52;3.17;;;2.50;;
13325;SDS011;6732;51.044;3.746;2022-12-07T06:17:18;2.60;;;2.30;;
13325;SDS011;6732;51.044;3.746;2022-12-07T06:19:44;3.70;;;2.20;;
13325;SDS011;6732;51.044;3.746;2022-12-07T06:22:10;3.17;;;2.53;;
13325;SDS011;6732;51.044;3.746;2022-12-07T06:24:37;3.70;;;2.60;;
13325;SDS011;6732;51.044;3.746;2022-12-07T06:27:04;6.13;;;2.60;;
13325;SDS011;6732;51.044;3.746;2022-12-07T06:29:31;5.57;;;2.60;;
13325;SDS011;6732;51.044;3.746;2022-12-07T06:31:57;6.87;;;3.17;;
13325;SDS011;6732;51.044;3.746;2022-12-07T06:34:24;5.90;;;3.10;;
13325;SDS011;6732;51.044;3.746;2022-12-07T06:36:50;3.63;;;2.77;;
13325;SDS011;6732;51.044;3.746;2022-12-07T06:39:19;4.40;;;2.80;;
13325;SDS011;6732;51.044;3.746;2022-12-07T06:41:46;4.40;;;2.93;;
13325;SDS011;6732;51.044;3.746;2022-12-07T06:44:12;5.57;;;2.77;;
13325;SDS011;6732;51.044;3.746;2022-12-07T06:46:38;5.17;;;2.80;;
13325;SDS011;6732;51.044;3.746;2022-12-07T06:49:04;4.83;;;2.90;;
13325;SDS011;6732;51.044;3.746;2022-12-07T06:51:31;7.03;;;3.77;;
13325;SDS011;6732;51.044;3.746;2022-12-07T06:53:58;6.20;;;3.40;;
13325;SDS011;6732;51.044;3.746;2022-12-07T06:56:23;6.63;;;3.30;;
13325;SDS011;6732;51.044;3.746;2022-12-07T06:58:49;5.63;;;3.17;;
13325;SDS011;6732;51.044;3.746;2022-12-07T07:01:16;5.57;;;2.90;;
13325;SDS011;6732;51.044;3.746;2022-12-07T07:03:44;6.90;;;3.23;;
13325;SDS011;6732;51.044;3.746;2022-12-07T07:06:10;5.57;;;2.83;;
13325;SDS011;6732;51.044;3.746;2022-12-07T07:08:37;6.33;;;2.90;;
13325;SDS011;6732;51.044;3.746;2022-12-07T07:11:05;5.57;;;2.67;;
13325;SDS011;6732;51.044;3.746;2022-12-07T07:13:33;4.63;;;2.77;;
13325;SDS011;6732;51.044;3.746;2022-12-07T07:15:59;4.10;;;2.90;;
13325;SDS011;6732;51.044;3.746;2022-12-07T07:18:26;5.17;;;2.80;;
13325;SDS011;6732;51.044;3.746;2022-12-07T07:20:52;4.83;;;2.67;;
13325;SDS011;6732;51.044;3.746;2022-12-07T07:23:19;5.87;;;2.70;;
13325;SDS011;6732;51.044;3.746;2022-12-07T07:25:46;12.00;;;3.43;;
13325;SDS011;6732;51.044;3.746;2022-12-07T07:28:12;8.60;;;3.03;;
13325;SDS011;6732;51.044;3.746;2022-12-07T07:30:38;7.77;;;3.23;;
13325;SDS011;6732;51.044;3.746;2022-12-07T07:33:04;6.60;;;2.80;;
13325;SDS011;6732;51.044;3.746;2022-12-07T07:35:31;5.17;;;3.07;;
13325;SDS011;6732;51.044;3.746;2022-12-07T07:37:58;3.53;;;2.60;;
13325;SDS011;6732;51.044;3.746;2022-12-07T07:40:25;5.13;;;2.70;;
13325;SDS011;6732;51.044;3.746;2022-12-07T07:42:52;3.70;;;3.03;;
13325;SDS011;6732;51.044;3.746;2022-12-07T07:45:19;5.07;;;2.70;;
13325;SDS011;6732;51.044;3.746;2022-12-07T07:47:46;6.17;;;2.50;;
13325;SDS011;6732;51.044;3.746;2022-12-07T07:50:12;5.10;;;2.73;;
13325;SDS011;6732;51.044;3.746;2022-12-07T07:52:38;5.07;;;2.60;;
13325;SDS011;6732;51.044;3.746;2022-12-07T07:55:05;4.20;;;2.60;;
13325;SDS011;6732;51.044;3.746;2022-12-07T07:57:34;5.27;;;2.63;;
13325;SDS011;6732;51.044;3.746;2022-12-07T08:00:04;5.50;;;2.50;;
13325;SDS011;6732;51.044;3.746;2022-12-07T08:02:32;3.80;;;2.50;;
13325;SDS011;6732;51.044;3.746;2022-12-07T08:04:58;5.43;;;3.03;;
13325;SDS011;6732;51.044;3.746;2022-12-07T08:07:24;3.77;;;2.43;;
13325;SDS011;6732;51.044;3.746;2022-12-07T08:09:50;4.80;;;2.70;;
13325;SDS011;6732;51.044;3.746;2022-12-07T08:12:16;6.23;;;3.70;;
13325;SDS011;6732;51.044;3.746;2022-12-07T08:14:42;5.60;;;3.07;;
13325;SDS011;6732;51.044;3.746;2022-12-07T08:17:08;5.37;;;3.23;;
13325;SDS011;6732;51.044;3.746;2022-12-07T08:19:34;6.63;;;3.33;;
13325;SDS011;6732;51.044;3.746;2022-12-07T08:22:00;6.07;;;3.70;;
13325;SDS011;6732;51.044;3.746;2022-12-07T08:24:26;5.53;;;3.37;;
13325;SDS011;6732;51.044;3.746;2022-12-07T08:26:52;7.20;;;3.60;;
13325;SDS011;6732;51.044;3.746;2022-12-07T08:29:18;6.73;;;3.50;;
13325;SDS011;6732;51.044;3.746;2022-12-07T08:31:44;8.60;;;4.13;;
13325;SDS011;6732;51.044;3.746;2022-12-07T08:34:10;6.23;;;3.60;;
13325;SDS011;6732;51.044;3.746;2022-12-07T08:36:37;7.60;;;3.80;;
13325;SDS011;6732;51.044;3.746;2022-12-07T08:39:03;7.20;;;3.70;;
13325;SDS011;6732;51.044;3.746;2022-12-07T08:41:29;6.20;;;3.50;;
13325;SDS011;6732;51.044;3.746;2022-12-07T08:43:55;6.70;;;3.10;;
13325;SDS011;6732;51.044;3.746;2022-12-07T08:46:31;6.30;;;3.43;;
13325;SDS011;6732;51.044;3.746;2022-12-07T08:49:02;7.47;;;3.40;;
13325;SDS011;6732;51.044;3.746;2022-12-07T08:51:29;7.97;;;3.90;;
13325;SDS011;6732;51.044;3.746;2022-12-07T08:53:55;6.53;;;3.73;;
13325;SDS011;6732;51.044;3.746;2022-12-07T08:56:24;7.87;;;3.40;;
13325;SDS011;6732;51.044;3.746;2022-12-07T08:59:41;8.03;;;4.23;;
13325;SDS011;6732;51.044;3.746;2022-12-07T09:02:07;10.07;;;4.00;;
13325;SDS011;6732;51.044;3.746;2022-12-07T09:04:33;5.93;;;3.30;;
13325;SDS011;6732;51.044;3.746;2022-12-07T09:06:58;7.87;;;3.50;;
13325;SDS011;6732;51.044;3.746;2022-12-07T09:09:24;5.37;;;3.23;;
13325;SDS011;6732;51.044;3.746;2022-12-07T09:11:50;8.87;;;3.13;;
13325;SDS011;6732;51.044;3.746;2022-12-07T09:14:16;8.47;;;3.00;;
13325;SDS011;6732;51.044;3.746;2022-12-07T09:16:43;6.70;;;3.67;;
13325;SDS011;6732;51.044;3.746;2022-12-07T09:19:09;6.80;;;4.23;;
13325;SDS011;6732;51.044;3.746;2022-12-07T09:21:35;6.00;;;4.03;;
13325;SDS011;6732;51.044;3.746;2022-12-07T09:24:01;8.07;;;4.00;;
13325;SDS011;6732;51.044;3.746;2022-12-07T09:26:27;7.17;;;3.77;;
13325;SDS011;6732;51.044;3.746;2022-12-07T09:28:53;7.23;;;3.90;;
13325;SDS011;6732;51.044;3.746;2022-12-07T09:31:19;6.73;;;3.87;;
13325;SDS011;6732;51.044;3.746;2022-12-07T09:33:45;10.37;;;4.20;;
13325;SDS011;6732;51.044;3.746;2022-12-07T09:36:11;8.43;;;3.90;;
13325;SDS011;6732;51.044;3.746;2022-12-07T09:38:37;5.70;;;3.40;;
13325;SDS011;6732;51.044;3.746;2022-12-07T09:41:04;10.80;;;3.93;;
13325;SDS011;6732;51.044;3.746;2022-12-07T09:43:32;6.97;;;3.07;;
13325;SDS011;6732;51.044;3.746;2022-12-07T09:46:00;5.50;;;2.77;;
13325;SDS011;6732;51.044;3.746;2022-12-07T09:48:30;7.37;;;2.80;;
13325;SDS011;6732;51.044;3.746;2022-12-07T09:50:59;6.17;;;2.53;;
13325;SDS011;6732;51.044;3.746;2022-12-07T09:53:36;8.10;;;2.50;;
13325;SDS011;6732;51.044;3.746;2022-12-07T09:56:03;4.63;;;2.37;;
13325;SDS011;6732;51.044;3.746;2022-12-07T09:58:30;6.40;;;2.70;;
13325;SDS011;6732;51.044;3.746;2022-12-07T10:03:34;9.50;;;4.27;;
13325;SDS011;6732;51.044;3.746;2022-12-07T10:06:02;9.87;;;4.20;;
13325;SDS011;6732;51.044;3.746;2022-12-07T10:08:30;10.17;;;3.80;;
13325;SDS011;6732;51.044;3.746;2022-12-07T10:10:57;8.37;;;3.70;;
13325;SDS011;6732;51.044;3.746;2022-12-07T10:13:39;4.97;;;2.53;;
13325;SDS011;6732;51.044;3.746;2022-12-07T10:18:50;8.47;;;2.47;;
13325;SDS011;6732;51.044;3.746;2022-12-07T10:21:17;5.57;;;2.60;;
13325;SDS011;6732;51.044;3.746;2022-12-07T10:24:04;7.57;;;2.77;;
13325;SDS011;6732;51.044;3.746;2022-12-07T10:26:41;5.20;;;2.87;;
13325;SDS011;6732;51.044;3.746;2022-12-07T10:29:23;8.30;;;3.10;;
13325;SDS011;6732;51.044;3.746;2022-12-07T10:32:03;3.37;;;2.57;;
13325;SDS011;6732;51.044;3.746;2022-12-07T10:34:52;6.20;;;2.60;;
13325;SDS011;6732;51.044;3.746;2022-12-07T10:37:44;3.57;;;2.80;;
13325;SDS011;6732;51.044;3.746;2022-12-07T10:43:03;6.67;;;2.87;;
13325;SDS011;6732;51.044;3.746;2022-12-07T10:45:32;7.10;;;3.30;;
13325;SDS011;6732;51.044;3.746;2022-12-07T10:48:08;9.00;;;2.80;;
13325;SDS011;6732;51.044;3.746;2022-12-07T11:02:15;4.47;;;2.67;;
13325;SDS011;6732;51.044;3.746;2022-12-07T11:05:15;6.63;;;3.30;;
13325;SDS011;6732;51.044;3.746;2022-12-07T11:08:38;8.13;;;3.27;;
13325;SDS011;6732;51.044;3.746;2022-12-07T11:10:59;5.03;;;2.67;;
13325;SDS011;6732;51.044;3.746;2022-12-07T11:13:48;5.57;;;2.27;;
13325;SDS011;6732;51.044;3.746;2022-12-07T11:16:55;6.03;;;2.50;;
13325;SDS011;6732;51.044;3.746;2022-12-07T11:22:24;6.00;;;2.47;;
13325;SDS011;6732;51.044;3.746;2022-12-07T11:27:36;4.17;;;2.47;;
13325;SDS011;6732;51.044;3.746;2022-12-07T11:30:19;6.73;;;2.70;;
13325;SDS011;6732;51.044;3.746;2022-12-07T11:38:08;5.73;;;2.87;;
13325;SDS011;6732;51.044;3.746;2022-12-07T11:40:47;5.53;;;2.80;;
13325;SDS011;6732;51.044;3.746;2022-12-07T11:43:19;4.83;;;2.60;;
13325;SDS011;6732;51.044;3.746;2022-12-07T11:45:52;5.07;;;2.83;;
13325;SDS011;6732;51.044;3.746;2022-12-07T11:51:13;6.90;;;3.07;;
13325;SDS011;6732;51.044;3.746;2022-12-07T11:56:27;3.90;;;2.50;;
13325;SDS011;6732;51.044;3.746;2022-12-07T11:59:15;6.50;;;3.17;;
13325;SDS011;6732;51.044;3.746;2022-12-07T12:01:50;5.57;;;2.53;;
13325;SDS011;6732;51.044;3.746;2022-12-07T12:04:58;3.73;;;2.10;;
13325;SDS011;6732;51.044;3.746;2022-12-07T12:07:31;4.27;;;1.97;;
13325;SDS011;6732;51.044;3.746;2022-12-07T12:09:58;5.37;;;2.00;;
13325;SDS011;6732;51.044;3.746;2022-12-07T12:12:54;3.63;;;2.17;;
13325;SDS011;6732;51.044;3.746;2022-12-07T12:15:51;4.73;;;2.43;;
13325;SDS011;6732;51.044;3.746;2022-12-07T12:18:54;4.53;;;1.77;;
13325;SDS011;6732;51.044;3.746;2022-12-07T12:21:14;4.97;;;2.60;;
13325;SDS011;6732;51.044;3.746;2022-12-07T12:23:48;3.77;;;2.33;;
13325;SDS011;6732;51.044;3.746;2022-12-07T12:26:21;6.93;;;3.00;;
13325;SDS011;6732;51.044;3.746;2022-12-07T12:31:16;7.67;;;2.80;;
13325;SDS011;6732;51.044;3.746;2022-12-07T12:46:47;5.90;;;2.40;;
13325;SDS011;6732;51.044;3.746;2022-12-07T12:54:29;6.90;;;3.13;;
13325;SDS011;6732;51.044;3.746;2022-12-07T12:59:34;9.37;;;2.90;;
13325;SDS011;6732;51.044;3.746;2022-12-07T13:23:20;8.17;;;3.43;;
13325;SDS011;6732;51.044;3.746;2022-12-07T13:28:40;12.03;;;3.33;;
13325;SDS011;6732;51.044;3.746;2022-12-07T13:31:20;8.53;;;3.20;;
13325;SDS011;6732;51.044;3.746;2022-12-07T13:33:59;8.40;;;2.90;;
13325;SDS011;6732;51.044;3.746;2022-12-07T13:36:31;8.63;;;4.10;;
13325;SDS011;6732;51.044;3.746;2022-12-07T13:39:16;9.13;;;3.23;;
13325;SDS011;6732;51.044;3.746;2022-12-07T13:41:45;8.40;;;3.37;;
13325;SDS011;6732;51.044;3.746;2022-12-07T13:44:18;6.60;;;3.47;;
13325;SDS011;6732;51.044;3.746;2022-12-07T13:46:50;8.23;;;3.53;;
13325;SDS011;6732;51.044;3.746;2022-12-07T13:49:38;5.53;;;2.67;;
13325;SDS011;6732;51.044;3.746;2022-12-07T13:52:13;6.53;;;2.57;;
13325;SDS011;6732;51.044;3.746;2022-12-07T13:54:48;4.00;;;3.13;;
13325;SDS011;6732;51.044;3.746;2022-12-07T13:57:38;6.47;;;3.03;;
13325;SDS011;6732;51.044;3.746;2022-12-07T14:00:06;5.70;;;3.00;;
13325;SDS011;6732;51.044;3.746;2022-12-07T14:03:00;6.10;;;2.37;;
13325;SDS011;6732;51.044;3.746;2022-12-07T14:05:30;8.73;;;6.20;;
13325;SDS011;6732;51.044;3.746;2022-12-07T14:08:04;7.60;;;4.10;;
13325;SDS011;6732;51.044;3.746;2022-12-07T14:15:55;5.40;;;2.67;;
13325;SDS011;6732;51.044;3.746;2022-12-07T14:23:32;4.27;;;2.80;;
13325;SDS011;6732;51.044;3.746;2022-12-07T14:26:06;5.53;;;2.60;;
13325;SDS011;6732;51.044;3.746;2022-12-07T14:28:36;2.27;;;1.57;;
13325;SDS011;6732;51.044;3.746;2022-12-07T14:31:03;5.20;;;1.90;;
13325;SDS011;6732;51.044;3.746;2022-12-07T14:33:38;4.27;;;1.60;;
13325;SDS011;6732;51.044;3.746;2022-12-07T14:36:05;3.17;;;1.20;;
13325;SDS011;6732;51.044;3.746;2022-12-07T14:38:31;6.00;;;1.27;;
13325;SDS011;6732;51.044;3.746;2022-12-07T14:40:57;2.23;;;1.13;;
13325;SDS011;6732;51.044;3.746;2022-12-07T14:43:41;3.77;;;1.30;;
13325;SDS011;6732;51.044;3.746;2022-12-07T14:46:08;2.63;;;1.30;;
13325;SDS011;6732;51.044;3.746;2022-12-07T14:48:34;2.50;;;1.50;;
13325;SDS011;6732;51.044;3.746;2022-12-07T14:51:00;3.27;;;1.50;;
13325;SDS011;6732;51.044;3.746;2022-12-07T14:53:31;4.60;;;1.60;;
13325;SDS011;6732;51.044;3.746;2022-12-07T14:56:00;3.83;;;1.43;;
13325;SDS011;6732;51.044;3.746;2022-12-07T14:58:26;3.07;;;1.60;;
13325;SDS011;6732;51.044;3.746;2022-12-07T15:00:52;3.37;;;1.67;;
13325;SDS011;6732;51.044;3.746;2022-12-07T15:03:18;3.23;;;1.50;;
13325;SDS011;6732;51.044;3.746;2022-12-07T15:05:44;3.73;;;1.60;;
13325;SDS011;6732;51.044;3.746;2022-12-07T15:08:11;4.30;;;1.33;;
13325;SDS011;6732;51.044;3.746;2022-12-07T15:10:37;3.40;;;1.60;;
13325;SDS011;6732;51.044;3.746;2022-12-07T15:13:05;3.20;;;1.97;;
13325;SDS011;6732;51.044;3.746;2022-12-07T15:15:50;4.60;;;2.23;;
13325;SDS011;6732;51.044;3.746;2022-12-07T15:18:18;4.77;;;2.83;;
13325;SDS011;6732;51.044;3.746;2022-12-07T15:20:45;4.47;;;2.67;;
13325;SDS011;6732;51.044;3.746;2022-12-07T15:23:11;5.53;;;3.23;;
13325;SDS011;6732;51.044;3.746;2022-12-07T15:25:44;6.10;;;2.73;;
13325;SDS011;6732;51.044;3.746;2022-12-07T15:28:12;4.70;;;2.90;;
13325;SDS011;6732;51.044;3.746;2022-12-07T15:30:38;4.40;;;2.70;;
13325;SDS011;6732;51.044;3.746;2022-12-07T15:33:08;5.43;;;3.40;;
13325;SDS011;6732;51.044;3.746;2022-12-07T15:35:39;5.23;;;3.40;;
13325;SDS011;6732;51.044;3.746;2022-12-07T15:38:06;3.37;;;2.97;;
13325;SDS011;6732;51.044;3.746;2022-12-07T15:40:32;4.43;;;3.37;;
13325;SDS011;6732;51.044;3.746;2022-12-07T15:42:59;3.37;;;2.80;;
13325;SDS011;6732;51.044;3.746;2022-12-07T15:45:25;3.73;;;2.50;;
13325;SDS011;6732;51.044;3.746;2022-12-07T15:47:50;3.97;;;2.20;;
13325;SDS011;6732;51.044;3.746;2022-12-07T15:50:17;3.17;;;2.60;;
13325;SDS011;6732;51.044;3.746;2022-12-07T15:52:43;5.03;;;3.17;;
13325;SDS011;6732;51.044;3.746;2022-12-07T15:55:09;6.73;;;3.90;;
13325;SDS011;6732;51.044;3.746;2022-12-07T15:57:36;4.50;;;3.70;;
13325;SDS011;6732;51.044;3.746;2022-12-07T16:00:07;6.27;;;3.70;;
13325;SDS011;6732;51.044;3.746;2022-12-07T16:02:34;6.37;;;3.83;;
13325;SDS011;6732;51.044;3.746;2022-12-07T16:05:01;7.43;;;6.27;;
13325;SDS011;6732;51.044;3.746;2022-12-07T16:07:27;6.43;;;4.73;;
13325;SDS011;6732;51.044;3.746;2022-12-07T16:09:53;6.90;;;3.50;;
13325;SDS011;6732;51.044;3.746;2022-12-07T16:12:19;4.67;;;3.13;;
13325;SDS011;6732;51.044;3.746;2022-12-07T16:14:45;4.53;;;2.73;;
13325;SDS011;6732;51.044;3.746;2022-12-07T16:17:10;4.63;;;3.23;;
13325;SDS011;6732;51.044;3.746;2022-12-07T16:19:37;3.13;;;2.50;;
13325;SDS011;6732;51.044;3.746;2022-12-07T16:22:04;4.67;;;2.90;;
13325;SDS011;6732;51.044;3.746;2022-12-07T16:24:30;5.87;;;3.47;;
13325;SDS011;6732;51.044;3.746;2022-12-07T16:26:56;6.40;;;3.50;;
13325;SDS011;6732;51.044;3.746;2022-12-07T16:29:22;7.17;;;3.23;;
13325;SDS011;6732;51.044;3.746;2022-12-07T16:31:48;5.77;;;3.47;;
13325;SDS011;6732;51.044;3.746;2022-12-07T16:34:16;9.03;;;3.77;;
13325;SDS011;6732;51.044;3.746;2022-12-07T16:36:42;5.80;;;3.97;;
13325;SDS011;6732;51.044;3.746;2022-12-07T16:39:08;6.87;;;3.93;;
13325;SDS011;6732;51.044;3.746;2022-12-07T16:41:35;6.27;;;3.87;;
13325;SDS011;6732;51.044;3.746;2022-12-07T16:44:05;6.70;;;4.10;;
13325;SDS011;6732;51.044;3.746;2022-12-07T16:46:33;8.93;;;5.47;;
13325;SDS011;6732;51.044;3.746;2022-12-07T16:48:59;9.57;;;6.47;;
13325;SDS011;6732;51.044;3.746;2022-12-07T16:51:25;8.40;;;5.13;;
13325;SDS011;6732;51.044;3.746;2022-12-07T16:53:52;6.73;;;4.67;;
13325;SDS011;6732;51.044;3.746;2022-12-07T16:56:18;9.37;;;5.47;;
13325;SDS011;6732;51.044;3.746;2022-12-07T16:58:44;6.67;;;5.30;;
13325;SDS011;6732;51.044;3.746;2022-12-07T17:01:16;8.10;;;4.90;;
13325;SDS011;6732;51.044;3.746;2022-12-07T17:03:43;8.77;;;4.03;;
13325;SDS011;6732;51.044;3.746;2022-12-07T17:06:13;7.20;;;4.07;;
13325;SDS011;6732;51.044;3.746;2022-12-07T17:08:44;7.50;;;4.10;;
13325;SDS011;6732;51.044;3.746;2022-12-07T17:11:11;8.07;;;4.50;;
13325;SDS011;6732;51.044;3.746;2022-12-07T17:13:38;8.53;;;4.93;;
13325;SDS011;6732;51.044;3.746;2022-12-07T17:16:23;6.80;;;4.40;;